Time;durP1;ratioP1;P1;durP2;ratioP2;P2;SDS_P1;SDS_P2;PMS_P1;PMS_P2;Temp;Humidity;BMP_temperature;BMP_pressure;BME280_temperature;BME280_humidity;BME280_pressure;Samples;Min_cycle;Max_cycle;Signal;HPM_P1;HPM_P2
2022/02/03 00:01:49;;;;;;;;;;;4.20;86.70;;;2.26;97.79;96658.19;4954835;28;19928;-67
2022/02/03 00:04:18;;;;;;;;;;;4.20;86.80;;;2.27;98.48;96659.06;4925907;28;19918;-66
2022/02/03 00:06:56;;;;;;;;;;;4.20;87.00;;;2.27;98.35;96656.47;4922171;29;20379;-68
2022/02/03 00:22:01;;;;;;;;;;;4.20;86.90;;;2.26;98.10;96659.97;4955939;28;20025;-67
2022/02/03 00:22:55;;;;;;;;;;;4.20;86.70;;;2.29;97.61;96664.94;4942537;28;19923;-67
2022/02/03 00:25:31;;;;;;;;;;;4.20;86.70;;;2.29;97.63;96664.94;4931411;29;19927;-67
2022/02/03 00:28:18;;;;;;;;;;;4.20;86.60;;;2.29;98.06;96670.94;4913290;29;19965;-67
2022/02/03 00:36:16;;;;;;;;;;;4.20;86.50;;;2.29;98.09;96665.75;4972371;28;19921;-64
2022/02/03 00:49:29;;;;;;;;;;;4.40;86.60;;;2.38;98.46;96675.38;4987594;28;19945;-63
2022/02/03 00:51:58;;;;;;;;;;;4.50;86.40;;;2.41;98.22;96680.34;4976741;28;20331;-63
2022/02/03 00:54:25;;;;;;;;;;;4.50;86.30;;;2.43;98.27;96678.44;4984459;28;19918;-64
2022/02/03 00:57:01;;;;;;;;;;;4.50;86.30;;;2.43;97.90;96677.59;4970622;28;20428;-64
2022/02/03 00:59:49;;;;;;;;;;;4.50;86.10;;;2.45;98.39;96684.31;4971450;28;19918;-63
2022/02/03 01:02:14;;;;;;;;;;;4.50;86.20;;;2.45;98.32;96681.72;4985728;28;20022;-64
2022/02/03 01:04:42;;;;;;;;;;;4.50;86.10;;;2.46;97.89;96682.56;4985927;28;20009;-63
2022/02/03 01:07:14;;;;;;;;;;;4.40;86.30;;;2.45;98.39;96684.31;4986089;28;19960;-63
2022/02/03 01:09:49;;;;;;;;;;;4.50;86.50;;;2.48;98.33;96680.66;4981412;28;19964;-63
2022/02/03 01:12:31;;;;;;;;;;;4.50;86.40;;;2.47;98.35;96674.63;4971027;28;20420;-64
2022/02/03 01:15:12;;;;;;;;;;;4.50;86.50;;;2.45;98.70;96676.53;4987854;28;19925;-63
2022/02/03 01:20:50;;;;;;;;;;;4.50;86.60;;;2.49;98.31;96676.28;4987841;28;19928;-62
2022/02/03 01:37:14;;;;;;;;;;;4.60;86.50;;;2.52;98.58;96674.28;4970435;28;19922;-62
2022/02/03 01:45:21;;;;;;;;;;;4.60;86.00;;;2.53;98.07;96665.53;4978727;28;20006;-63
2022/02/03 01:48:04;;;;;;;;;;;4.60;86.00;;;2.52;97.88;96668.25;4975526;28;19944;-62
2022/02/03 01:53:14;;;;;;;;;;;4.60;85.90;;;2.50;97.46;96662.38;4999439;28;19932;-62
2022/02/03 01:55:40;;;;;;;;;;;4.60;85.60;;;2.46;97.58;96647.03;5009605;28;19933;-62
2022/02/03 01:58:13;;;;;;;;;;;4.60;85.70;;;2.46;97.83;96646.19;4974828;28;19921;-62
2022/02/03 02:00:40;;;;;;;;;;;4.60;85.60;;;2.47;97.87;96645.25;4994039;28;20524;-62
2022/02/03 02:03:08;;;;;;;;;;;4.50;86.00;;;2.45;98.03;96644.56;5006193;28;20389;-62
2022/02/03 02:06:08;;;;;;;;;;;4.50;86.00;;;2.43;97.94;96642.09;4993308;28;19928;-62
2022/02/03 02:09:30;;;;;;;;;;;4.40;86.30;;;2.44;97.89;96633.34;4992716;28;19917;-62
2022/02/03 02:12:38;;;;;;;;;;;4.50;86.30;;;2.41;97.94;96627.59;4968852;28;20302;-62
2022/02/03 02:37:17;;;;;;;;;;;4.60;86.40;;;2.51;98.64;96622.47;4988714;28;19925;-62
2022/02/03 02:42:40;;;;;;;;;;;4.60;86.30;;;2.54;98.29;96624.81;4992876;28;19921;-62
2022/02/03 02:45:10;;;;;;;;;;;4.70;86.00;;;2.56;98.65;96620.31;4991532;28;19925;-62
2022/02/03 02:47:52;;;;;;;;;;;4.70;86.00;;;2.55;98.54;96618.66;4991626;28;19925;-61
2022/02/03 02:50:28;;;;;;;;;;;4.70;85.80;;;2.57;98.45;96621.97;4975641;28;19926;-62
2022/02/03 02:56:19;;;;;;;;;;;4.80;85.80;;;2.61;98.69;96628.53;4986532;28;19918;-62
2022/02/03 03:33:56;;;;;;;;;;;4.80;85.90;;;2.76;98.52;96606.50;4990968;28;20339;-62
2022/02/03 03:36:22;;;;;;;;;;;4.80;85.70;;;2.75;98.59;96605.69;4975615;28;20317;-62
2022/02/03 03:38:49;;;;;;;;;;;4.90;85.80;;;2.76;98.59;96606.50;4990684;28;19917;-62
2022/02/03 03:41:17;;;;;;;;;;;4.90;85.80;;;2.75;98.45;96605.69;4995988;28;19949;-62
2022/02/03 03:43:44;;;;;;;;;;;4.90;85.80;;;2.77;98.89;96600.34;4990733;28;20013;-62
2022/02/03 03:46:26;;;;;;;;;;;4.80;86.10;;;2.77;98.75;96605.56;4990311;28;19921;-61
2022/02/03 03:49:28;;;;;;;;;;;4.80;86.20;;;2.77;98.96;96608.16;4986820;28;19917;-62
2022/02/03 03:52:01;;;;;;;;;;;4.80;86.40;;;2.75;99.49;96602.25;4990530;28;19917;-62
2022/02/03 03:54:46;;;;;;;;;;;4.80;86.40;;;2.78;99.07;96609.78;4999917;28;20468;-63
2022/02/03 03:57:24;;;;;;;;;;;4.90;86.40;;;2.78;99.06;96602.00;4991657;28;19964;-62
2022/02/03 04:35:21;;;;;;;;;;;4.90;87.00;;;2.88;99.92;96589.88;4989247;28;19993;-63
2022/02/03 04:43:57;;;;;;;;;;;5.00;87.00;;;2.92;100.00;96580.84;4964519;28;19918;-62
2022/02/03 04:55:45;;;;;;;;;;;5.10;86.70;;;2.99;99.74;96569.00;4974402;28;20052;-62
2022/02/03 05:17:35;;;;;;;;;;;5.20;86.00;;;3.10;99.33;96542.09;4988800;28;19968;-62
2022/02/03 05:31:59;;;;;;;;;;;5.10;86.10;;;3.10;99.85;96541.28;4979228;28;19984;-62
2022/02/03 05:42:53;;;;;;;;;;;4.90;88.30;;;2.97;100.00;96531.94;4946847;29;20010;-63
2022/02/03 06:08:26;;;;;;;;;;;5.10;89.30;;;3.16;100.00;96517.34;4988118;28;19984;-62
2022/02/03 06:13:46;;;;;;;;;;;5.10;89.50;;;3.22;100.00;96519.44;4969447;28;19924;-62
2022/02/03 06:21:31;;;;;;;;;;;5.20;89.50;;;3.27;100.00;96512.06;4989884;28;19964;-63
2022/02/03 06:24:07;;;;;;;;;;;5.10;89.40;;;3.30;100.00;96522.19;4972501;28;19917;-65
2022/02/03 06:29:20;;;;;;;;;;;5.20;89.40;;;3.31;100.00;96518.63;4978328;28;19964;-64
2022/02/03 06:31:47;;;;;;;;;;;5.30;89.30;;;3.35;100.00;96515.63;4995837;28;20453;-64
2022/02/03 06:34:13;;;;;;;;;;;5.30;89.40;;;3.35;100.00;96518.22;4986672;28;19947;-63
2022/02/03 06:36:40;;;;;;;;;;;5.30;89.10;;;3.38;100.00;96510.13;5006581;28;20362;-64
2022/02/03 06:39:26;;;;;;;;;;;5.30;89.10;;;3.42;100.00;96508.13;5017719;28;20289;-64
2022/02/03 06:41:54;;;;;;;;;;;5.40;88.90;;;3.43;100.00;96511.53;4975179;28;19928;-65
2022/02/03 06:44:24;;;;;;;;;;;5.40;89.00;;;3.45;100.00;96512.22;4998292;28;19937;-64
2022/02/03 06:46:52;;;;;;;;;;;5.50;88.90;;;3.49;100.00;96511.81;4979505;28;19928;-64
2022/02/03 06:51:53;;;;;;;;;;;5.40;88.90;;;3.53;100.00;96507.16;4975117;28;20293;-64
2022/02/03 06:54:29;;;;;;;;;;;5.50;88.80;;;3.54;100.00;96514.81;4990912;28;20286;-64
2022/02/03 06:57:00;;;;;;;;;;;5.60;88.80;;;3.57;100.00;96504.16;4986779;28;19922;-64
2022/02/03 06:59:37;;;;;;;;;;;5.60;88.80;;;3.58;100.00;96511.00;4991213;28;19918;-64
2022/02/03 07:02:04;;;;;;;;;;;5.60;88.90;;;3.60;100.00;96509.06;4991460;28;19928;-64
2022/02/03 07:04:38;;;;;;;;;;;5.60;88.90;;;3.63;100.00;96508.81;4974376;28;19993;-63
2022/02/03 07:07:03;;;;;;;;;;;5.60;89.20;;;3.66;100.00;96497.31;4992413;28;20354;-64
2022/02/03 07:09:30;;;;;;;;;;;5.60;89.00;;;3.71;100.00;96507.31;4992275;28;19936;-64
2022/02/03 07:11:55;;;;;;;;;;;5.70;88.80;;;3.73;100.00;96495.00;4992251;28;20523;-63
2022/02/03 07:14:23;;;;;;;;;;;5.70;88.70;;;3.73;100.00;96502.78;4990310;28;19913;-63
2022/02/03 07:16:51;;;;;;;;;;;5.70;88.60;;;3.76;100.00;96502.53;4990931;28;19996;-63
2022/02/03 07:19:17;;;;;;;;;;;5.80;88.50;;;3.77;100.00;96504.16;4971714;28;20531;-63
2022/02/03 07:21:42;;;;;;;;;;;5.70;88.40;;;3.79;100.00;96507.44;4990726;28;19917;-64
2022/02/03 07:24:08;;;;;;;;;;;5.80;88.50;;;3.82;100.00;96512.38;4964499;28;20372;-63
2022/02/03 07:26:34;;;;;;;;;;;5.80;88.60;;;3.83;100.00;96511.41;4979404;28;19934;-64
2022/02/03 07:28:59;;;;;;;;;;;5.90;88.40;;;3.88;100.00;96511.84;5001923;28;19929;-65
2022/02/03 07:31:27;;;;;;;;;;;6.00;88.20;;;3.89;100.00;96503.06;5001922;28;20289;-64
2022/02/03 07:33:54;;;;;;;;;;;6.00;88.20;;;3.94;100.00;96500.88;4973775;28;19921;-63
2022/02/03 07:36:20;;;;;;;;;;;6.10;88.00;;;3.99;100.00;96488.28;4987612;28;19924;-63
2022/02/03 07:38:46;;;;;;;;;;;6.10;87.80;;;4.02;100.00;96482.78;4991338;28;19922;-64
2022/02/03 07:41:12;;;;;;;;;;;6.10;87.60;;;4.05;100.00;96479.91;4985843;28;19981;-63
2022/02/03 07:43:37;;;;;;;;;;;6.20;87.50;;;4.11;100.00;96479.38;4988657;28;19926;-64
2022/02/03 07:46:03;;;;;;;;;;;6.30;87.10;;;4.16;100.00;96479.75;4989739;28;19928;-63
2022/02/03 07:48:29;;;;;;;;;;;6.40;86.90;;;4.18;100.00;96475.22;4972534;28;19924;-65
2022/02/03 07:50:55;;;;;;;;;;;6.40;86.80;;;4.20;100.00;96475.91;4989058;28;19928;-65
2022/02/03 07:53:21;;;;;;;;;;;6.40;86.60;;;4.22;100.00;96466.16;4989754;28;19921;-67
2022/02/03 07:55:47;;;;;;;;;;;6.50;86.50;;;4.27;100.00;96466.56;4988429;28;19917;-67
2022/02/03 07:58:12;;;;;;;;;;;6.80;86.10;;;4.38;100.00;96467.38;4990092;28;19924;-65
2022/02/03 08:00:38;;;;;;;;;;;7.10;84.80;;;4.53;100.00;96466.78;4988098;28;20348;-65
2022/02/03 08:03:09;;;;;;;;;;;7.60;83.30;;;4.69;100.00;96466.16;4990631;28;19917;-65
2022/02/03 08:05:36;;;;;;;;;;;7.60;82.80;;;4.81;100.00;96470.22;4989112;28;19925;-64
2022/02/03 08:08:07;;;;;;;;;;;7.50;83.00;;;4.92;100.00;96462.22;4973927;28;19921;-64
2022/02/03 08:13:01;;;;;;;;;;;7.60;83.30;;;5.09;99.55;96452.78;4989674;28;20309;-65
2022/02/03 08:15:28;;;;;;;;;;;7.50;83.20;;;5.13;99.08;96454.13;5002548;28;19918;-63
2022/02/03 08:18:01;;;;;;;;;;;7.40;83.40;;;5.21;99.70;96453.44;4989190;28;19918;-65
2022/02/03 08:20:26;;;;;;;;;;;7.60;83.50;;;5.25;98.09;96452.16;4988400;28;19929;-65
2022/02/03 08:23:10;;;;;;;;;;;7.50;83.20;;;5.28;97.99;96457.06;4976649;28;19971;-64
2022/02/03 08:25:40;;;;;;;;;;;7.60;83.30;;;5.34;97.75;96448.66;4976802;28;20321;-65
2022/02/03 08:30:58;;;;;;;;;;;7.60;83.00;;;5.39;97.81;96449.03;4988311;28;19956;-65
2022/02/03 08:33:24;;;;;;;;;;;7.60;83.20;;;5.43;97.17;96447.78;4989094;28;20004;-65
2022/02/03 08:35:51;;;;;;;;;;;7.60;82.90;;;5.44;96.66;96452.03;4990195;28;19918;-65
2022/02/03 08:38:19;;;;;;;;;;;7.50;83.10;;;5.41;97.51;96441.88;4989720;28;19924;-65
2022/02/03 08:43:20;;;;;;;;;;;7.50;83.20;;;5.45;96.67;96442.41;4989054;28;20350;-66
2022/02/03 08:45:45;;;;;;;;;;;7.60;83.00;;;5.47;96.86;96443.91;4992036;28;19936;-61
2022/02/03 08:48:12;;;;;;;;;;;7.60;83.10;;;5.52;97.17;96444.28;4987384;28;19922;-64
2022/02/03 08:50:38;;;;;;;;;;;7.70;83.20;;;5.55;97.51;96445.75;4983252;28;19917;-64
2022/02/03 08:53:09;;;;;;;;;;;7.70;82.70;;;5.58;97.49;96436.81;4989888;28;19917;-64
2022/02/03 09:59:35;;;;;;;;;;;21.50;40.10;;;13.40;75.35;96361.44;4972445;28;19925;-65
2022/02/03 10:02:09;;;;;;;;;;;22.60;37.20;;;13.96;74.69;96358.44;4988329;28;19922;-66
2022/02/03 10:04:45;;;;;;;;;;;23.40;36.10;;;14.55;74.48;96349.66;4956769;28;19925;-68
2022/02/03 10:07:21;;;;;;;;;;;24.10;34.70;;;14.90;72.24;96351.97;4972061;28;19925;-66
2022/02/03 10:09:52;;;;;;;;;;;23.10;35.70;;;15.01;70.73;96348.69;4974596;28;19933;-64
2022/02/03 10:12:18;;;;;;;;;;;21.50;37.60;;;15.03;72.45;96343.97;4991795;28;19918;-63
2022/02/03 10:14:45;;;;;;;;;;;21.60;38.60;;;15.07;73.29;96342.53;4991075;28;19918;-66
2022/02/03 10:17:12;;;;;;;;;;;21.40;38.00;;;14.94;71.55;96334.66;4975777;28;19929;-64
2022/02/03 10:19:40;;;;;;;;;;;21.10;38.80;;;15.11;71.57;96335.78;4992210;28;19972;-66
2022/02/03 10:22:17;;;;;;;;;;;23.30;36.30;;;15.47;68.88;96326.41;4988220;28;19926;-65
2022/02/03 10:24:46;;;;;;;;;;;23.70;35.30;;;15.95;68.29;96318.75;4975067;28;19997;-64
2022/02/03 10:27:22;;;;;;;;;;;25.90;30.90;;;16.34;68.34;96314.94;4991916;28;19921;-64
2022/02/03 10:29:48;;;;;;;;;;;25.40;30.20;;;16.64;66.66;96312.34;4991179;28;19949;-64
2022/02/03 10:32:14;;;;;;;;;;;25.70;31.20;;;16.92;65.41;96308.38;4991853;28;20305;-64
2022/02/03 10:34:43;;;;;;;;;;;25.00;31.30;;;16.82;65.32;96308.91;4989923;28;19940;-65
2022/02/03 10:37:21;;;;;;;;;;;22.70;33.80;;;16.69;64.81;96287.81;5013226;28;20361;-64
2022/02/03 10:40:09;;;;;;;;;;;23.50;33.40;;;17.00;66.37;96284.97;5002509;28;19924;-65
2022/02/03 10:45:38;;;;;;;;;;;27.30;28.40;;;17.97;65.18;96258.16;4990603;28;20297;-66
2022/02/03 11:01:07;;;;;;;;;;;24.10;30.50;;;17.74;61.54;96233.16;4990257;28;19918;-65
2022/02/03 11:06:09;;;;;;;;;;;20.90;35.20;;;16.66;61.18;96245.72;4990309;28;19930;-64
2022/02/03 11:08:44;;;;;;;;;;;19.60;38.40;;;16.11;63.35;96253.72;4990255;28;19918;-64
2022/02/03 11:11:16;;;;;;;;;;;18.60;41.30;;;15.53;63.81;96261.94;4970319;28;20339;-65
2022/02/03 11:13:42;;;;;;;;;;;17.50;43.40;;;14.89;62.66;96261.09;4970983;28;19963;-67
2022/02/03 11:16:10;;;;;;;;;;;16.60;45.20;;;14.38;64.61;96261.09;4973597;28;19988;-67
2022/02/03 11:18:35;;;;;;;;;;;16.10;47.30;;;13.97;66.57;96246.34;4973753;28;19949;-67
2022/02/03 11:21:01;;;;;;;;;;;15.90;48.80;;;13.60;66.80;96244.34;4990600;28;19933;-67
2022/02/03 11:26:18;;;;;;;;;;;15.10;50.60;;;12.85;67.41;96241.78;4991278;28;20004;-62
2022/02/03 11:47:51;;;;;;;;;;;18.00;44.40;;;13.56;67.21;96203.47;4956579;28;19929;-65
2022/02/03 11:53:18;;;;;;;;;;;17.40;44.30;;;13.57;66.13;96202.47;5020045;28;19926;-63
2022/02/03 11:56:16;;;;;;;;;;;17.40;44.80;;;13.55;65.85;96194.72;4976426;28;19918;-64
2022/02/03 11:59:42;;;;;;;;;;;17.50;45.20;;;13.52;67.88;96178.47;4989178;28;19952;-63
2022/02/03 12:12:53;;;;;;;;;;;15.60;51.40;;;12.76;68.97;96152.44;4989209;28;19917;-65
2022/02/03 12:15:46;;;;;;;;;;;15.30;52.30;;;12.54;68.87;96139.41;4989531;28;19923;-65
2022/02/03 12:18:22;;;;;;;;;;;14.90;53.10;;;12.37;69.16;96135.50;4989893;28;19921;-63
2022/02/03 12:26:27;;;;;;;;;;;14.20;54.20;;;11.88;68.16;96115.47;4989395;28;19921;-62
2022/02/03 12:29:00;;;;;;;;;;;14.10;54.40;;;11.78;69.43;96111.56;4988571;28;20035;-62
2022/02/03 12:37:04;;;;;;;;;;;13.90;54.80;;;11.65;70.65;96089.38;4975362;28;19964;-64
2022/02/03 12:39:42;;;;;;;;;;;14.00;54.80;;;11.56;69.87;96076.59;4972186;28;19914;-63
2022/02/03 12:42:20;;;;;;;;;;;14.20;54.30;;;11.62;70.38;96084.50;4973436;28;19918;-65
2022/02/03 12:44:46;;;;;;;;;;;14.40;53.80;;;11.71;69.94;96090.41;5004157;28;19925;-65
2022/02/03 12:47:14;;;;;;;;;;;14.80;53.20;;;11.78;70.09;96086.03;4989824;28;19926;-64
2022/02/03 12:49:40;;;;;;;;;;;15.00;52.90;;;11.88;69.97;96080.38;4991901;28;20373;-65
2022/02/03 12:52:25;;;;;;;;;;;15.10;52.60;;;11.94;69.93;96079.59;4957320;28;19922;-64
2022/02/03 12:54:51;;;;;;;;;;;15.10;52.70;;;11.93;69.37;96083.25;5001028;28;19917;-65
2022/02/03 12:57:33;;;;;;;;;;;14.70;52.60;;;11.89;69.10;96068.84;4974389;28;20442;-64
2022/02/03 13:00:14;;;;;;;;;;;14.60;53.60;;;11.83;69.43;96064.38;4989263;28;19925;-66
2022/02/03 13:02:40;;;;;;;;;;;14.40;53.80;;;11.76;69.63;96061.66;4989923;28;20000;-66
2022/02/03 13:05:06;;;;;;;;;;;14.20;54.70;;;11.72;70.26;96054.34;4988600;28;20396;-66
2022/02/03 13:07:31;;;;;;;;;;;14.10;55.50;;;11.63;70.22;96043.97;4990960;28;19926;-66
2022/02/03 13:10:09;;;;;;;;;;;14.00;55.80;;;11.59;69.88;96044.56;4988027;28;20027;-66
2022/02/03 13:12:39;;;;;;;;;;;13.90;55.60;;;11.55;70.13;96040.72;5013221;28;19941;-67
2022/02/03 13:15:07;;;;;;;;;;;13.80;56.10;;;11.42;70.67;96027.47;4972359;28;19917;-65
2022/02/03 13:17:37;;;;;;;;;;;13.60;56.50;;;11.35;71.04;96032.72;4988637;28;19918;-66
2022/02/03 13:20:25;;;;;;;;;;;13.60;56.70;;;11.31;71.03;96034.91;4988312;28;19964;-63
2022/02/03 13:23:05;;;;;;;;;;;13.70;57.10;;;11.35;71.02;96033.53;4974762;28;19972;-64
2022/02/03 13:25:41;;;;;;;;;;;13.70;57.10;;;11.33;70.80;96040.00;4983913;28;19941;-66
2022/02/03 13:28:15;;;;;;;;;;;13.80;56.50;;;11.37;70.88;96028.06;4974082;28;20397;-67
2022/02/03 13:30:48;;;;;;;;;;;14.00;56.20;;;11.44;71.83;96015.72;4987410;28;19918;-66
2022/02/03 13:33:17;;;;;;;;;;;14.50;55.60;;;11.60;70.97;96010.13;5001294;28;19996;-66
2022/02/03 13:35:54;;;;;;;;;;;14.80;54.40;;;11.79;70.96;95998.06;5011291;28;19926;-65
2022/02/03 13:41:22;;;;;;;;;;;15.60;51.90;;;12.12;69.35;95997.31;4989272;28;19921;-66
2022/02/03 13:43:48;;;;;;;;;;;15.40;52.50;;;12.13;68.99;95978.66;4973999;28;19921;-65
2022/02/03 13:46:27;;;;;;;;;;;15.10;52.50;;;12.13;69.83;95968.09;4992032;28;19936;-65
2022/02/03 13:48:53;;;;;;;;;;;15.00;52.70;;;12.04;68.95;95964.03;4974955;28;20078;-65
2022/02/03 13:51:19;;;;;;;;;;;14.60;53.70;;;11.93;69.41;95962.00;4992489;28;19925;-65
2022/02/03 13:54:02;;;;;;;;;;;14.30;54.80;;;11.85;69.65;95962.19;4988994;28;19921;-65
2022/02/03 14:16:02;;;;;;;;;;;13.60;57.60;;;11.21;70.76;95930.97;4975898;28;20259;-65
2022/02/03 14:28:39;;;;;;;;;;;13.30;59.00;;;10.95;72.14;95924.59;4990104;28;19979;-65
2022/02/03 14:31:07;;;;;;;;;;;13.10;59.70;;;10.89;71.90;95916.66;4990413;28;19921;-63
2022/02/03 14:33:36;;;;;;;;;;;13.00;60.50;;;10.84;72.49;95914.59;4975013;28;20352;-65
2022/02/03 14:36:08;;;;;;;;;;;12.90;60.90;;;10.77;72.74;95908.50;4990894;28;21593;-64
2022/02/03 14:38:42;;;;;;;;;;;12.80;61.30;;;10.68;73.23;95912.31;4998754;28;19918;-67
2022/02/03 14:41:15;;;;;;;;;;;12.60;61.60;;;10.58;73.09;95909.19;5005303;28;19926;-66
2022/02/03 14:43:41;;;;;;;;;;;12.60;62.00;;;10.46;73.27;95910.75;4975343;28;19928;-66
2022/02/03 14:46:12;;;;;;;;;;;12.30;63.00;;;10.36;74.90;95901.38;5004246;28;19926;-65
2022/02/03 14:48:39;;;;;;;;;;;12.10;64.00;;;10.31;74.56;95910.84;4989969;28;19925;-66
2022/02/03 14:51:06;;;;;;;;;;;12.10;64.40;;;10.25;74.74;95899.28;4990846;28;19926;-66
2022/02/03 14:53:49;;;;;;;;;;;12.10;64.50;;;10.13;75.22;95885.81;5004165;28;20377;-65
2022/02/03 14:58:59;;;;;;;;;;;11.90;65.20;;;10.00;75.21;95884.91;4991482;28;19929;-65
2022/02/03 15:01:25;;;;;;;;;;;11.70;65.70;;;9.90;75.87;95890.47;4973510;28;20331;-64
2022/02/03 15:03:54;;;;;;;;;;;11.70;66.20;;;9.81;76.42;95897.69;4989906;28;20005;-60
2022/02/03 15:06:23;;;;;;;;;;;11.60;66.40;;;9.71;76.76;95902.44;4989486;28;20401;-65
2022/02/03 15:09:13;;;;;;;;;;;11.40;66.70;;;9.62;76.32;95906.19;4991359;28;19918;-67
2022/02/03 15:12:05;;;;;;;;;;;11.40;66.90;;;9.56;76.18;95891.19;4972927;28;19926;-66
2022/02/03 15:14:25;;;;;;;;;;;11.30;67.20;;;9.49;77.07;95887.69;5003191;28;20369;-66
2022/02/03 15:16:51;;;;;;;;;;;11.20;67.50;;;9.43;76.78;95906.81;4984679;28;19918;-65
2022/02/03 15:19:17;;;;;;;;;;;11.20;67.60;;;9.39;76.65;95902.94;4989672;28;19940;-64
2022/02/03 15:21:43;;;;;;;;;;;11.20;67.50;;;9.31;75.71;95884.69;4987021;28;19917;-67
2022/02/03 15:24:09;;;;;;;;;;;11.10;67.40;;;9.21;76.08;95880.53;4971383;28;19921;-67
2022/02/03 15:26:34;;;;;;;;;;;10.90;67.40;;;9.17;76.90;95873.22;4971127;28;19918;-67
2022/02/03 15:29:00;;;;;;;;;;;10.90;68.00;;;9.15;77.69;95877.84;4975535;28;20020;-68
2022/02/03 15:31:32;;;;;;;;;;;10.90;67.70;;;9.07;76.50;95870.91;4984909;28;19917;-66
2022/02/03 15:34:06;;;;;;;;;;;10.80;68.40;;;8.97;77.63;95872.19;4989814;28;19921;-65
2022/02/03 15:36:34;;;;;;;;;;;10.70;68.80;;;8.91;78.08;95873.75;4971194;28;20305;-66
2022/02/03 15:39:05;;;;;;;;;;;10.70;68.80;;;8.88;78.06;95871.50;4973741;28;19914;-66
2022/02/03 15:41:30;;;;;;;;;;;10.70;68.30;;;8.83;76.91;95872.03;4999351;28;19921;-67
2022/02/03 15:43:58;;;;;;;;;;;10.60;67.80;;;8.78;77.59;95873.56;5001235;28;20296;-67
2022/02/03 15:46:25;;;;;;;;;;;10.60;67.90;;;8.72;77.50;95869.06;4987449;28;19922;-66
2022/02/03 15:49:08;;;;;;;;;;;10.50;68.20;;;8.68;77.22;95876.47;4989713;28;20008;-66
2022/02/03 15:56:59;;;;;;;;;;;10.30;69.30;;;8.53;79.31;95881.72;4976258;28;20084;-66
2022/02/03 16:02:40;;;;;;;;;;;10.30;70.20;;;8.43;78.52;95880.38;4986149;28;19943;-66
2022/02/03 16:13:36;;;;;;;;;;;10.00;71.40;;;8.17;79.48;95880.81;5000466;28;20024;-65
2022/02/03 16:18:48;;;;;;;;;;;9.90;71.60;;;8.03;79.89;95871.09;4989747;28;19925;-64
2022/02/03 16:21:24;;;;;;;;;;;9.80;71.50;;;7.96;80.32;95874.44;4986284;28;20286;-63
2022/02/03 16:24:06;;;;;;;;;;;9.70;71.90;;;7.91;80.06;95868.91;4974634;28;19917;-64
2022/02/03 16:43:23;;;;;;;;;;;9.30;73.80;;;7.54;82.18;95855.81;4987582;28;20363;-63
2022/02/03 16:51:06;;;;;;;;;;;9.20;74.10;;;7.35;81.85;95839.59;4990048;28;19960;-63
2022/02/03 16:53:31;;;;;;;;;;;9.10;74.20;;;7.33;82.82;95836.34;4983095;28;20361;-63
2022/02/03 16:55:59;;;;;;;;;;;9.10;74.50;;;7.27;82.75;95841.47;4974198;28;19980;-63
2022/02/03 16:58:28;;;;;;;;;;;9.10;74.50;;;7.22;83.25;95849.00;4988813;28;19917;-63
2022/02/03 17:00:59;;;;;;;;;;;9.00;74.60;;;7.18;83.03;95843.31;4984205;28;19922;-63
2022/02/03 17:03:25;;;;;;;;;;;9.00;74.80;;;7.15;82.91;95854.13;4988178;28;19918;-63
2022/02/03 17:05:51;;;;;;;;;;;8.90;74.90;;;7.11;82.87;95850.25;4961927;28;19972;-62
2022/02/03 17:08:17;;;;;;;;;;;8.90;75.00;;;7.08;83.56;95853.22;4988381;28;19917;-63
2022/02/03 17:10:42;;;;;;;;;;;8.90;75.20;;;7.03;83.12;95845.06;4987483;28;19928;-63
2022/02/03 17:13:08;;;;;;;;;;;8.80;75.20;;;7.02;84.06;95848.69;4972909;28;19917;-63
2022/02/03 17:15:35;;;;;;;;;;;8.80;75.40;;;6.97;83.89;95843.94;4989749;28;19924;-63
2022/02/03 17:18:01;;;;;;;;;;;8.80;75.50;;;6.93;84.00;95849.69;4989637;28;19921;-62
2022/02/03 17:20:29;;;;;;;;;;;8.70;75.70;;;6.91;83.86;95835.97;4988269;28;20389;-64
2022/02/03 17:22:56;;;;;;;;;;;8.60;75.80;;;6.88;84.39;95834.53;4988190;28;20015;-63
2022/02/03 17:25:30;;;;;;;;;;;8.60;75.80;;;6.87;83.94;95832.09;4989654;28;19925;-65
2022/02/03 17:28:03;;;;;;;;;;;8.70;75.60;;;6.86;83.84;95822.63;4988045;28;19932;-63
2022/02/03 17:30:42;;;;;;;;;;;8.60;75.80;;;6.81;83.48;95819.72;4982004;28;19949;-63
2022/02/03 18:03:32;;;;;;;;;;;8.30;76.70;;;6.60;84.58;95817.69;4988987;28;20652;-64
2022/02/03 18:08:54;;;;;;;;;;;8.40;76.40;;;6.57;84.09;95792.72;4987703;28;20019;-64
2022/02/03 18:11:32;;;;;;;;;;;8.40;76.40;;;6.55;84.32;95799.91;4989606;28;19921;-63
2022/02/03 19:01:38;;;;;;;;;;;8.00;76.30;;;6.19;84.36;95796.16;4991898;28;19914;-64
2022/02/03 20:05:52;;;;;;;;;;;7.60;78.20;;;5.75;86.22;95775.69;4982394;28;19918;-64
2022/02/03 20:09:08;;;;;;;;;;;7.40;78.50;;;5.71;86.02;95777.00;4981276;28;20445;-64
2022/02/03 20:11:09;;;;;;;;;;;7.40;78.60;;;5.69;86.36;95782.41;4965217;28;19941;-64
2022/02/03 20:13:34;;;;;;;;;;;7.50;78.70;;;5.68;86.01;95762.50;4983154;28;20405;-64
2022/02/03 20:16:00;;;;;;;;;;;7.40;78.50;;;5.63;86.45;95756.13;4989884;28;19921;-64
2022/02/03 20:18:26;;;;;;;;;;;7.40;78.60;;;5.62;87.68;95780.59;4972870;28;19929;-64
2022/02/03 20:20:51;;;;;;;;;;;7.40;79.00;;;5.60;87.37;95774.75;4991174;28;19918;-64
2022/02/03 20:23:20;;;;;;;;;;;7.40;79.20;;;5.56;86.33;95760.41;4990956;28;20373;-65
2022/02/03 20:25:53;;;;;;;;;;;7.20;79.40;;;5.53;87.66;95764.97;5008535;28;19973;-65
2022/02/03 20:28:18;;;;;;;;;;;7.20;79.60;;;5.47;87.97;95768.25;5014687;28;20000;-66
2022/02/03 20:30:44;;;;;;;;;;;7.20;79.80;;;5.45;87.65;95754.56;4973319;28;19932;-64
2022/02/03 20:33:10;;;;;;;;;;;7.10;80.60;;;5.42;88.13;95769.72;4989741;28;20381;-64
2022/02/03 20:35:36;;;;;;;;;;;7.10;81.00;;;5.37;88.47;95757.16;4989130;28;19925;-67
2022/02/03 20:38:02;;;;;;;;;;;7.10;81.30;;;5.32;88.84;95754.25;4989718;28;20496;-65
2022/02/03 20:40:27;;;;;;;;;;;7.00;81.80;;;5.29;89.62;95765.00;4989363;28;19925;-66
2022/02/03 20:42:53;;;;;;;;;;;6.90;82.10;;;5.23;89.56;95752.63;4989705;28;19917;-67
2022/02/03 20:45:19;;;;;;;;;;;6.80;82.30;;;5.19;89.80;95754.72;4990261;28;20424;-66
2022/02/03 20:47:44;;;;;;;;;;;6.80;82.50;;;5.20;89.54;95763.38;4988718;28;19921;-64
2022/02/03 20:50:13;;;;;;;;;;;6.90;82.20;;;5.18;90.33;95736.66;4991264;28;19975;-64
2022/02/03 20:52:39;;;;;;;;;;;6.90;82.00;;;5.19;89.79;95741.69;4990332;28;20539;-64
2022/02/03 20:55:04;;;;;;;;;;;6.90;82.10;;;5.18;89.80;95747.06;4990642;28;19921;-65
2022/02/03 20:57:30;;;;;;;;;;;6.90;82.10;;;5.20;89.96;95751.19;4990606;28;19917;-64
2022/02/03 21:05:40;;;;;;;;;;;7.10;81.30;;;5.20;89.53;95748.56;4971983;28;19964;-64
2022/02/03 21:08:05;;;;;;;;;;;7.10;81.40;;;5.20;90.56;95750.34;4989247;28;19948;-64
2022/02/03 21:10:32;;;;;;;;;;;7.10;81.40;;;5.18;90.71;95731.44;4981852;28;19925;-64
2022/02/03 21:12:57;;;;;;;;;;;7.00;81.60;;;5.19;89.98;95748.69;5019671;28;19921;-64
2022/02/03 21:15:25;;;;;;;;;;;7.00;81.40;;;5.18;90.38;95726.22;4987755;28;19925;-65
2022/02/03 21:17:51;;;;;;;;;;;7.10;81.30;;;5.17;89.44;95727.19;4990010;28;19918;-66
2022/02/03 21:20:19;;;;;;;;;;;7.00;81.10;;;5.14;90.63;95746.59;5005102;28;19922;-66
2022/02/03 21:22:45;;;;;;;;;;;7.00;81.40;;;5.12;90.21;95740.72;4985620;28;19918;-66
2022/02/03 21:25:19;;;;;;;;;;;7.00;81.30;;;5.13;89.71;95744.16;4971183;28;19932;-63
2022/02/03 21:27:45;;;;;;;;;;;7.00;80.80;;;5.08;89.77;95746.44;4983831;28;19929;-64
2022/02/03 21:30:11;;;;;;;;;;;7.00;81.00;;;5.06;89.34;95744.00;5005774;28;19921;-64
2022/02/03 21:32:37;;;;;;;;;;;7.00;80.40;;;5.00;88.80;95728.22;4982414;28;19925;-63
2022/02/03 21:35:07;;;;;;;;;;;6.90;80.30;;;5.00;89.97;95733.41;4992276;28;19921;-63
2022/02/03 21:37:33;;;;;;;;;;;6.80;80.80;;;4.95;89.54;95730.47;4981279;28;19918;-63
2022/02/03 21:39:59;;;;;;;;;;;6.80;80.60;;;4.92;89.30;95732.44;4982769;28;19918;-64
2022/02/03 21:42:24;;;;;;;;;;;6.80;80.80;;;4.87;89.04;95726.06;4977700;28;19921;-63
2022/02/03 21:44:50;;;;;;;;;;;6.60;81.10;;;4.83;89.82;95722.19;4970310;28;20150;-62
2022/02/03 21:47:16;;;;;;;;;;;6.60;81.10;;;4.81;90.26;95727.56;5006606;28;20385;-63
2022/02/03 21:49:41;;;;;;;;;;;6.60;81.30;;;4.78;90.55;95725.28;4987157;28;19926;-62